Roy Baker — WDC2698 — position and weather

sailwx.info

Track history (hours):
 
Tides and Currents Weather Stations Pressure Air Temp Water Temp Dewpoint Dewpoint Depression Visibility Wind Speed Wind Dir Waves Ship Positions

Roy Baker

Owner: Kirby Inland Marine LP, Houston, TX. More information available from US FCC via Universal Licensing System and Coast Guard Vessel Documentation Center.

Last reported at 2015-Jan-30 00:33 UTC. Time now 2015-Jan-30 15:35 UTC.
Position N 29°58' W 090°02'.

Length 24 m; draft 2.3 m.

Type: Towing. MMSI: 366996540.

Date/timePositionNaut miles runAvg speedWind from/ knotsBaromVisibWave heightAir tempDewpointWater temp
2015-Jan-30 00:33N 29°58' W 090°02'0 0.4
2015-Jan-29 23:31N 29°57' W 090°01'0 0.0
2015-Jan-29 22:33N 29°57' W 090°01'0 0.0
2015-Jan-29 21:31N 29°57' W 090°01'2 2.4
2015-Jan-29 20:28N 29°56' W 089°59'0 0.0
2015-Jan-29 16:26N 29°56' W 089°59'0 0.0
2015-Jan-29 15:32N 29°56' W 089°59'0 0.0
2015-Jan-29 14:30N 29°56' W 089°59'0 0.0
2015-Jan-29 13:04N 29°56' W 089°59'0 0.0
2015-Jan-29 12:24N 29°56' W 089°59'0 0.0
2015-Jan-29 09:30N 29°56' W 089°59'0 0.0
2015-Jan-29 08:33N 29°56' W 089°59'0 0.0
2015-Jan-29 07:29N 29°56' W 089°59'0 0.0
2015-Jan-29 06:33N 29°56' W 089°59'0 0.0
2015-Jan-29 05:25N 29°56' W 089°59'0 0.0
2015-Jan-29 03:33N 29°56' W 089°59'0 0.0
2015-Jan-29 02:33N 29°56' W 089°59'1 0.5
2015-Jan-29 00:05N 29°55' W 089°59'47 3.6
2015-Jan-28 11:14N 29°32' W 090°46'4 5.5
2015-Jan-28 10:29N 29°32' W 090°51'5 5.6
2015-Jan-28 09:30N 29°34' W 090°57'5 4.9
2015-Jan-28 08:33N 29°37' W 091°01'5 5.2
2015-Jan-28 07:33N 29°38' W 091°07'4 4.1
2015-Jan-28 06:33N 29°41' W 091°10'2 1.9
2015-Jan-28 05:33N 29°41' W 091°13'3 3.0
2015-Jan-28 04:33N 29°39' W 091°15'5 4.7
2015-Jan-28 03:33N 29°38' W 091°20'4 4.3
2015-Jan-28 02:33N 29°39' W 091°25'3 3.4
2015-Jan-28 01:33N 29°41' W 091°29'5 4.4
2015-Jan-28 00:32N 29°43' W 091°33'  
2015-Jan-22 00:29N 29°46' W 091°36'8 7.8
2015-Jan-21 23:24N 29°41' W 091°28'4 8.0
2015-Jan-21 22:50N 29°39' W 091°24'0 7.5
2015-Jan-21 22:46N 29°39' W 091°23'2 7.1
2015-Jan-21 22:33N 29°39' W 091°21'7 6.7
2015-Jan-21 21:33N 29°40' W 091°14'5 4.7
2015-Jan-21 20:33N 29°41' W 091°09'4 4.2
2015-Jan-21 19:33N 29°38' W 091°05'6 6.2
2015-Jan-21 18:33N 29°36' W 090°58'57 2.0
2015-Jan-20 14:20N 29°60' W 089°59'0 0.0
2015-Jan-20 13:09N 29°60' W 089°59'0 0.0
2015-Jan-20 12:25N 29°60' W 089°59'0 0.0
2015-Jan-20 11:32N 29°60' W 089°59'0 0.0
2015-Jan-20 10:32N 29°60' W 089°59'0 0.0
2015-Jan-20 09:29N 29°60' W 089°59'0 0.0
2015-Jan-20 08:33N 29°60' W 089°59'0 0.0
2015-Jan-20 07:29N 29°60' W 089°59'0 0.0
2015-Jan-20 06:30N 29°60' W 089°59'0 0.0
2015-Jan-20 05:28N 29°60' W 089°59'0 0.0
2015-Jan-20 04:29N 29°60' W 089°59'0 0.0
2015-Jan-20 03:26N 29°60' W 089°59'0 0.0
2015-Jan-20 02:32N 29°60' W 089°59'0 0.0
2015-Jan-20 01:22N 29°60' W 089°59'0 0.0
2015-Jan-20 00:33N 29°60' W 089°59'  
Track history (hours):
 
Tides and Currents Weather Stations Pressure Air Temp Water Temp Dewpoint Dewpoint Depression Visibility Wind Speed Wind Dir Waves Ship Positions

Roy Baker

Owner: Kirby Inland Marine LP, Houston, TX. More information available from US FCC via Universal Licensing System and Coast Guard Vessel Documentation Center.

Last reported at 2015-Jan-30 00:33 UTC. Time now 2015-Jan-30 15:35 UTC.
Position N 29°58' W 090°02'.

Length 24 m; draft 2.3 m.

Type: Towing. MMSI: 366996540.

Date/timePositionNaut miles runAvg speedWind from/ knotsBaromVisibWave heightAir tempDewpointWater temp
2015-Jan-30 00:33N 29°58' W 090°02'0 0.4
2015-Jan-29 23:31N 29°57' W 090°01'0 0.0
2015-Jan-29 22:33N 29°57' W 090°01'0 0.0
2015-Jan-29 21:31N 29°57' W 090°01'2 2.4
2015-Jan-29 20:28N 29°56' W 089°59'0 0.0
2015-Jan-29 16:26N 29°56' W 089°59'0 0.0
2015-Jan-29 15:32N 29°56' W 089°59'0 0.0
2015-Jan-29 14:30N 29°56' W 089°59'0 0.0
2015-Jan-29 13:04N 29°56' W 089°59'0 0.0
2015-Jan-29 12:24N 29°56' W 089°59'0 0.0
2015-Jan-29 09:30N 29°56' W 089°59'0 0.0
2015-Jan-29 08:33N 29°56' W 089°59'0 0.0
2015-Jan-29 07:29N 29°56' W 089°59'0 0.0
2015-Jan-29 06:33N 29°56' W 089°59'0 0.0
2015-Jan-29 05:25N 29°56' W 089°59'0 0.0
2015-Jan-29 03:33N 29°56' W 089°59'0 0.0
2015-Jan-29 02:33N 29°56' W 089°59'1 0.5
2015-Jan-29 00:05N 29°55' W 089°59'47 3.6
2015-Jan-28 11:14N 29°32' W 090°46'4 5.5
2015-Jan-28 10:29N 29°32' W 090°51'5 5.6
2015-Jan-28 09:30N 29°34' W 090°57'5 4.9
2015-Jan-28 08:33N 29°37' W 091°01'5 5.2
2015-Jan-28 07:33N 29°38' W 091°07'4 4.1
2015-Jan-28 06:33N 29°41' W 091°10'2 1.9
2015-Jan-28 05:33N 29°41' W 091°13'3 3.0
2015-Jan-28 04:33N 29°39' W 091°15'5 4.7
2015-Jan-28 03:33N 29°38' W 091°20'4 4.3
2015-Jan-28 02:33N 29°39' W 091°25'3 3.4
2015-Jan-28 01:33N 29°41' W 091°29'5 4.4
2015-Jan-28 00:32N 29°43' W 091°33'  
2015-Jan-22 00:29N 29°46' W 091°36'8 7.8
2015-Jan-21 23:24N 29°41' W 091°28'4 8.0
2015-Jan-21 22:50N 29°39' W 091°24'0 7.5
2015-Jan-21 22:46N 29°39' W 091°23'2 7.1
2015-Jan-21 22:33N 29°39' W 091°21'7 6.7
2015-Jan-21 21:33N 29°40' W 091°14'5 4.7
2015-Jan-21 20:33N 29°41' W 091°09'4 4.2
2015-Jan-21 19:33N 29°38' W 091°05'6 6.2
2015-Jan-21 18:33N 29°36' W 090°58'57 2.0
2015-Jan-20 14:20N 29°60' W 089°59'0 0.0
2015-Jan-20 13:09N 29°60' W 089°59'0 0.0
2015-Jan-20 12:25N 29°60' W 089°59'0 0.0
2015-Jan-20 11:32N 29°60' W 089°59'0 0.0
2015-Jan-20 10:32N 29°60' W 089°59'0 0.0
2015-Jan-20 09:29N 29°60' W 089°59'0 0.0
2015-Jan-20 08:33N 29°60' W 089°59'0 0.0
2015-Jan-20 07:29N 29°60' W 089°59'0 0.0
2015-Jan-20 06:30N 29°60' W 089°59'0 0.0
2015-Jan-20 05:28N 29°60' W 089°59'0 0.0
2015-Jan-20 04:29N 29°60' W 089°59'0 0.0
2015-Jan-20 03:26N 29°60' W 089°59'0 0.0
2015-Jan-20 02:32N 29°60' W 089°59'0 0.0
2015-Jan-20 01:22N 29°60' W 089°59'0 0.0
2015-Jan-20 00:33N 29°60' W 089°59'  

Dump ship's entire track history